Time;durP1;ratioP1;P1;durP2;ratioP2;P2;SDS_P1;SDS_P2;PMS_P1;PMS_P2;Temp;Humidity;BMP_temperature;BMP_pressure;BME280_temperature;BME280_humidity;BME280_pressure;Samples;Min_cycle;Max_cycle;Signal;HPM_P1;HPM_P2
2022/04/05 00:01:16;;;;;;;13.23;10.90;;;3.20;99.90;;;;;;5073697;28;20523;-52
2022/04/05 00:03:41;;;;;;;11.97;10.63;;;3.30;99.90;;;;;;5073228;28;20547;-52
2022/04/05 00:06:07;;;;;;;13.93;11.17;;;3.30;99.90;;;;;;5072918;28;20713;-54
2022/04/05 00:08:33;;;;;;;13.30;11.53;;;3.30;99.90;;;;;;5072953;28;20253;-55
2022/04/05 00:10:58;;;;;;;12.63;11.33;;;3.30;99.90;;;;;;5073109;28;20227;-51
2022/04/05 00:13:24;;;;;;;12.93;11.43;;;3.30;99.90;;;;;;5054936;28;20206;-55
2022/04/05 00:15:49;;;;;;;13.67;11.57;;;3.30;99.90;;;;;;5073372;28;20174;-54
2022/04/05 00:18:15;;;;;;;13.33;11.93;;;3.30;99.90;;;;;;5073566;28;20178;-53
2022/04/05 00:20:41;;;;;;;12.27;10.90;;;3.30;99.90;;;;;;5072251;28;20206;-55
2022/04/05 00:23:06;;;;;;;12.90;11.17;;;3.30;99.90;;;;;;5073129;28;20532;-56
2022/04/05 00:25:32;;;;;;;13.30;11.00;;;3.30;99.90;;;;;;5072927;28;20170;-55
2022/04/05 00:27:58;;;;;;;14.33;11.73;;;3.30;99.90;;;;;;5073285;28;20328;-52
2022/04/05 00:30:23;;;;;;;13.97;11.67;;;3.30;99.90;;;;;;5072912;28;20194;-52
2022/04/05 00:32:49;;;;;;;12.80;11.50;;;3.50;99.90;;;;;;5072591;28;20198;-55
2022/04/05 00:35:15;;;;;;;13.43;12.00;;;3.40;99.90;;;;;;5073076;28;20744;-54
2022/04/05 00:37:40;;;;;;;13.47;11.60;;;3.50;99.90;;;;;;5072964;28;20220;-51
2022/04/05 00:40:07;;;;;;;14.10;12.00;;;3.30;99.90;;;;;;5067874;28;20206;-51
2022/04/05 00:42:34;;;;;;;14.10;12.30;;;3.30;99.90;;;;;;5060560;28;20174;-54
2022/04/05 00:45:00;;;;;;;14.07;12.67;;;3.50;99.90;;;;;;5052916;28;20163;-55
2022/04/05 00:47:25;;;;;;;13.70;12.20;;;3.50;99.90;;;;;;5070585;28;20235;-53
2022/04/05 00:49:53;;;;;;;14.87;13.07;;;3.30;99.90;;;;;;5092308;28;20197;-53
2022/04/05 00:52:21;;;;;;;14.90;12.70;;;3.30;99.90;;;;;;5092113;28;20169;-50
2022/04/05 00:54:49;;;;;;;15.10;13.33;;;3.40;99.90;;;;;;5092946;28;20219;-53
2022/04/05 00:57:19;;;;;;;13.87;12.23;;;3.30;99.90;;;;;;5092932;28;20165;-54
2022/04/05 00:59:47;;;;;;;14.70;13.20;;;3.40;99.90;;;;;;5072640;28;20269;-51
2022/04/05 01:02:14;;;;;;;15.17;12.90;;;3.60;99.90;;;;;;5072215;28;20181;-54
2022/04/05 01:04:42;;;;;;;15.93;13.77;;;3.50;99.90;;;;;;5054327;28;20787;-54
2022/04/05 01:07:14;;;;;;;14.07;12.47;;;3.50;99.90;;;;;;5054524;28;20257;-54
2022/04/05 01:09:40;;;;;;;14.57;12.93;;;4.10;99.90;;;;;;5072017;28;20244;-55
2022/04/05 01:12:09;;;;;;;15.67;13.43;;;3.40;99.90;;;;;;5072467;28;20178;-52
2022/04/05 01:14:36;;;;;;;15.57;13.47;;;3.40;99.90;;;;;;5071850;28;20639;-54
2022/04/05 01:17:03;;;;;;;15.43;13.27;;;3.60;99.90;;;;;;5072227;28;20598;-54
2022/04/05 01:19:30;;;;;;;14.50;12.87;;;3.50;99.90;;;;;;5072187;28;20202;-52
2022/04/05 01:21:56;;;;;;;15.57;13.87;;;3.40;99.90;;;;;;5071813;28;20713;-53
2022/04/05 01:24:22;;;;;;;16.93;13.80;;;3.60;99.90;;;;;;5071997;28;20182;-53
2022/04/05 01:26:49;;;;;;;15.00;13.33;;;3.50;99.90;;;;;;5071810;28;20198;-53
2022/04/05 01:29:16;;;;;;;16.33;13.43;;;3.60;99.90;;;;;;5072133;28;20418;-51
2022/04/05 01:31:50;;;;;;;14.83;13.20;;;3.90;99.90;;;;;;5072015;28;20198;-54
2022/04/05 01:34:18;;;;;;;15.33;13.30;;;3.60;99.90;;;;;;5069377;28;20197;-54
2022/04/05 01:36:50;;;;;;;15.30;13.50;;;3.60;99.90;;;;;;5052417;28;20171;-55
2022/04/05 01:39:16;;;;;;;15.70;12.90;;;3.50;99.90;;;;;;5052262;28;20191;-51
2022/04/05 01:41:42;;;;;;;15.90;14.20;;;3.60;99.90;;;;;;5052011;28;20163;-52
2022/04/05 01:44:10;;;;;;;15.53;12.90;;;3.70;99.90;;;;;;5052284;28;20541;-54
2022/04/05 01:46:35;;;;;;;14.87;13.23;;;3.60;99.90;;;;;;5063001;28;20265;-52
2022/04/05 01:49:04;;;;;;;14.47;12.17;;;3.40;99.90;;;;;;5051407;28;20259;-55
2022/04/05 01:51:30;;;;;;;14.97;12.40;;;3.70;99.90;;;;;;5051823;28;20194;-52
2022/04/05 01:53:58;;;;;;;14.37;12.87;;;;;;;;;;5050986;28;20265;-54
2022/04/05 01:56:24;;;;;;;14.13;12.27;;;3.70;99.90;;;;;;5051697;28;20649;-53
2022/04/05 01:58:49;;;;;;;12.73;11.37;;;3.70;99.90;;;;;;5051616;28;20171;-50
2022/04/05 02:01:15;;;;;;;14.47;11.03;;;3.60;99.90;;;;;;5051514;28;20195;-52
2022/04/05 02:03:40;;;;;;;13.23;11.73;;;3.60;99.90;;;;;;5051366;28;20200;-52
2022/04/05 02:06:08;;;;;;;12.10;10.80;;;3.70;99.90;;;;;;5051175;28;20190;-56
2022/04/05 02:08:33;;;;;;;13.13;11.70;;;3.70;99.90;;;;;;5051627;28;20186;-55
2022/04/05 02:10:59;;;;;;;12.77;10.40;;;3.70;99.90;;;;;;5051260;28;20199;-54
2022/04/05 02:13:25;;;;;;;11.97;10.67;;;4.00;99.90;;;;;;5051293;28;20191;-55
2022/04/05 02:15:50;;;;;;;11.70;9.97;;;3.60;99.90;;;;;;5051060;28;20167;-51
2022/04/05 02:18:16;;;;;;;10.27;9.17;;;3.70;99.90;;;;;;5051439;28;20163;-52
2022/04/05 02:20:43;;;;;;;13.00;11.30;;;3.70;99.90;;;;;;5051265;28;20249;-54
2022/04/05 02:23:08;;;;;;;11.73;10.53;;;3.70;99.90;;;;;;5050784;28;20183;-52
2022/04/05 02:25:34;;;;;;;12.03;10.30;;;3.80;99.90;;;;;;5051763;28;20304;-54
2022/04/05 02:28:00;;;;;;;11.67;9.63;;;;;;;;;;5051019;28;20521;-53
2022/04/05 02:30:25;;;;;;;10.97;9.77;;;3.90;99.90;;;;;;5051395;28;20211;-50
2022/04/05 02:32:51;;;;;;;10.23;9.23;;;3.80;99.90;;;;;;5050565;28;20285;-51
2022/04/05 02:35:18;;;;;;;10.70;9.10;;;4.00;99.90;;;;;;5033494;28;20181;-52
2022/04/05 02:37:43;;;;;;;12.47;9.73;;;3.90;99.90;;;;;;5051310;28;20589;-52
2022/04/05 02:40:09;;;;;;;10.13;9.13;;;3.90;99.90;;;;;;5051102;28;20278;-53
2022/04/05 02:42:35;;;;;;;10.67;9.57;;;4.00;99.90;;;;;;5051008;28;20219;-53
2022/04/05 02:45:00;;;;;;;11.40;9.93;;;4.00;99.90;;;;;;5036065;28;20179;-51
2022/04/05 02:47:26;;;;;;;10.83;9.67;;;4.00;99.90;;;;;;5055200;28;20171;-52
2022/04/05 02:49:51;;;;;;;10.47;9.10;;;4.00;99.90;;;;;;5054649;28;20199;-51
2022/04/05 02:52:17;;;;;;;10.50;9.40;;;4.10;99.90;;;;;;5054718;28;20189;-51
2022/04/05 02:54:43;;;;;;;12.33;9.27;;;4.00;99.90;;;;;;5054626;28;20539;-52
2022/04/05 02:57:08;;;;;;;10.67;9.40;;;4.00;99.90;;;;;;5055050;28;20228;-51
2022/04/05 02:59:34;;;;;;;10.43;9.20;;;3.90;99.90;;;;;;5054939;28;20222;-52
2022/04/05 03:01:59;;;;;;;9.87;8.87;;;4.00;99.90;;;;;;5054327;28;20644;-51
2022/04/05 03:04:25;;;;;;;8.93;8.03;;;3.90;99.90;;;;;;5054658;28;20201;-52
2022/04/05 03:06:51;;;;;;;10.33;8.87;;;;;;;;;;5054543;28;20179;-53
2022/04/05 03:09:17;;;;;;;11.47;9.37;;;3.90;99.90;;;;;;5054740;28;20281;-53
2022/04/05 03:11:43;;;;;;;9.93;8.07;;;3.60;99.90;;;;;;5054296;28;20262;-53
2022/04/05 03:14:10;;;;;;;9.70;8.70;;;3.90;99.90;;;;;;5054413;28;20738;-52
2022/04/05 03:16:37;;;;;;;10.63;8.50;;;3.90;99.90;;;;;;5054507;28;20579;-52
2022/04/05 03:19:03;;;;;;;9.30;8.30;;;3.90;99.90;;;;;;5054405;28;20167;-52
2022/04/05 03:21:29;;;;;;;8.90;7.70;;;3.90;99.90;;;;;;5054461;28;20328;-51
2022/04/05 03:23:54;;;;;;;9.53;8.53;;;3.90;99.90;;;;;;5053850;28;20183;-51
2022/04/05 03:26:20;;;;;;;9.60;8.60;;;3.80;99.90;;;;;;5054548;28;20215;-52
2022/04/05 03:28:46;;;;;;;8.87;7.80;;;;;;;;;;5053813;28;20194;-54
2022/04/05 03:31:12;;;;;;;8.57;7.67;;;3.70;99.90;;;;;;5054319;28;20577;-52
2022/04/05 03:33:37;;;;;;;10.10;7.87;;;3.80;99.90;;;;;;5053742;28;20729;-53
2022/04/05 03:36:03;;;;;;;8.93;7.63;;;3.70;99.90;;;;;;5071648;28;20181;-51
2022/04/05 03:38:29;;;;;;;8.83;7.50;;;3.70;99.90;;;;;;5074252;28;20257;-52
2022/04/05 03:40:54;;;;;;;8.47;7.57;;;3.70;99.90;;;;;;5073782;28;20194;-52
2022/04/05 03:43:20;;;;;;;9.23;7.67;;;3.60;99.90;;;;;;5073885;28;20253;-53
2022/04/05 03:45:47;;;;;;;8.47;7.57;;;3.70;99.90;;;;;;5073788;28;20178;-53
2022/04/05 03:48:12;;;;;;;9.07;7.90;;;3.60;99.90;;;;;;5074124;28;20171;-51
2022/04/05 03:50:38;;;;;;;8.03;7.20;;;4.00;99.90;;;;;;5073620;28;20736;-53
2022/04/05 03:53:04;;;;;;;8.57;7.60;;;3.70;99.90;;;;;;5073618;28;20209;-54
2022/04/05 03:55:29;;;;;;;10.93;7.03;;;3.60;99.90;;;;;;5072617;28;20163;-51
2022/04/05 03:57:55;;;;;;;11.27;7.90;;;3.70;99.90;;;;;;5073631;28;20175;-53
2022/04/05 04:00:20;;;;;;;7.83;7.03;;;4.00;99.90;;;;;;5073670;28;20190;-51
2022/04/05 04:02:46;;;;;;;7.80;6.97;;;3.60;99.90;;;;;;5073023;28;20174;-54
2022/04/05 04:05:19;;;;;;;8.83;7.77;;;3.60;99.90;;;;;;5055887;28;20794;-52
2022/04/05 04:07:44;;;;;;;9.00;7.17;;;3.60;99.90;;;;;;5073370;28;20224;-52
2022/04/05 04:10:10;;;;;;;7.63;6.83;;;3.50;99.90;;;;;;5073526;28;20659;-53
2022/04/05 04:12:36;;;;;;;7.33;6.13;;;3.60;99.90;;;;;;5071803;28;20575;-56
2022/04/05 04:15:02;;;;;;;8.50;6.90;;;3.00;99.90;;;;;;5073431;28;20531;-51
2022/04/05 04:17:28;;;;;;;7.57;6.40;;;3.60;99.90;;;;;;5073674;28;20185;-53
2022/04/05 04:19:53;;;;;;;10.63;7.97;;;3.60;99.90;;;;;;5072790;28;20285;-54
2022/04/05 04:22:19;;;;;;;8.50;7.10;;;3.50;99.90;;;;;;5073201;28;20189;-55
2022/04/05 04:24:44;;;;;;;7.70;6.60;;;3.70;99.90;;;;;;5072880;28;20170;-53
2022/04/05 04:27:13;;;;;;;8.93;7.67;;;3.70;99.90;;;;;;5073252;28;20216;-54
2022/04/05 04:29:38;;;;;;;7.27;6.50;;;3.60;99.90;;;;;;5072625;28;20261;-56
2022/04/05 04:32:04;;;;;;;8.03;6.67;;;3.70;99.90;;;;;;5073129;28;20712;-55
2022/04/05 04:34:30;;;;;;;7.60;6.90;;;3.60;99.90;;;;;;5068173;28;20276;-56
2022/04/05 04:36:56;;;;;;;8.17;7.30;;;3.60;99.90;;;;;;5053249;28;20169;-55
2022/04/05 04:39:23;;;;;;;7.43;6.60;;;3.60;99.90;;;;;;5053136;28;20183;-55
2022/04/05 04:41:48;;;;;;;8.43;6.63;;;3.60;99.90;;;;;;5053015;28;20174;-55
2022/04/05 04:44:14;;;;;;;7.90;6.87;;;;;;;;;;5052788;28;20176;-52
2022/04/05 04:46:40;;;;;;;7.73;6.17;;;3.60;99.90;;;;;;5052483;28;20171;-54
2022/04/05 04:49:05;;;;;;;9.73;7.07;;;3.40;99.90;;;;;;5052161;28;20343;-54
2022/04/05 04:51:31;;;;;;;8.13;6.70;;;4.10;99.90;;;;;;5052461;28;20167;-51
2022/04/05 04:53:56;;;;;;;9.93;6.80;;;3.40;99.90;;;;;;5052208;28;20667;-52
2022/04/05 04:56:22;;;;;;;7.93;6.73;;;3.50;99.90;;;;;;5063186;28;20181;-52
2022/04/05 04:58:47;;;;;;;8.03;6.63;;;3.60;99.90;;;;;;5053767;28;20179;-54
2022/04/05 05:01:13;;;;;;;8.13;6.97;;;3.40;99.90;;;;;;5034654;28;20171;-54
2022/04/05 05:03:39;;;;;;;8.43;7.00;;;3.30;99.90;;;;;;5051910;28;20194;-54
2022/04/05 05:06:04;;;;;;;8.77;7.03;;;3.40;99.90;;;;;;5052395;28;20179;-54
2022/04/05 05:08:31;;;;;;;8.43;7.10;;;3.30;99.90;;;;;;5070729;28;20181;-52
2022/04/05 05:10:56;;;;;;;8.37;7.47;;;3.30;99.90;;;;;;5092495;28;20213;-52
2022/04/05 05:13:22;;;;;;;8.83;7.10;;;3.30;99.90;;;;;;5084549;28;20260;-52
2022/04/05 05:15:47;;;;;;;7.57;6.77;;;3.30;99.90;;;;;;5072023;28;20175;-51
2022/04/05 05:18:13;;;;;;;8.67;7.67;;;3.20;99.90;;;;;;5072352;28;20249;-53
2022/04/05 05:20:39;;;;;;;10.10;7.80;;;3.20;99.90;;;;;;5085944;23;20230;-51
2022/04/05 05:23:05;;;;;;;10.23;7.13;;;3.20;99.90;;;;;;5070937;28;20170;-47
2022/04/05 05:25:31;;;;;;;8.73;7.67;;;3.20;99.90;;;;;;5071662;28;20171;-47
2022/04/05 05:27:56;;;;;;;8.70;7.40;;;3.30;99.90;;;;;;5071784;28;20203;-50
2022/04/05 05:30:22;;;;;;;9.53;7.40;;;3.30;99.90;;;;;;5070742;28;20214;-47
2022/04/05 05:32:49;;;;;;;9.17;7.23;;;3.30;99.90;;;;;;5080477;28;20220;-47
2022/04/05 05:35:16;;;;;;;9.60;7.97;;;3.30;99.90;;;;;;5092144;28;20189;-48
2022/04/05 05:37:42;;;;;;;8.37;7.43;;;3.20;99.90;;;;;;5091878;28;20173;-47
2022/04/05 05:40:08;;;;;;;8.23;7.37;;;3.20;99.90;;;;;;5077265;28;20179;-49
2022/04/05 05:42:34;;;;;;;8.10;7.00;;;3.20;99.90;;;;;;5062447;28;20171;-47
2022/04/05 05:45:00;;;;;;;8.83;7.23;;;3.20;99.90;;;;;;5052863;28;20205;-50
2022/04/05 05:47:25;;;;;;;9.50;7.70;;;3.30;99.90;;;;;;5051742;28;20663;-49
2022/04/05 05:49:51;;;;;;;8.70;7.53;;;3.40;99.90;;;;;;5051225;28;20198;-47
2022/04/05 05:52:17;;;;;;;8.60;7.70;;;;;;;;;;5051479;28;20167;-50
2022/04/05 05:54:42;;;;;;;8.90;8.00;;;3.30;99.90;;;;;;5051335;28;20182;-46
2022/04/05 05:57:08;;;;;;;10.10;7.40;;;3.30;99.90;;;;;;5051795;28;20175;-53
2022/04/05 05:59:33;;;;;;;7.83;7.03;;;3.30;99.90;;;;;;5063999;28;20268;-48
2022/04/05 06:01:59;;;;;;;9.50;7.80;;;3.30;99.90;;;;;;5067570;28;20345;-53
2022/04/05 06:04:25;;;;;;;9.20;7.37;;;3.30;99.90;;;;;;5067833;28;20178;-50
2022/04/05 06:06:50;;;;;;;9.17;7.50;;;3.40;99.90;;;;;;5063458;28;20648;-46
2022/04/05 06:09:16;;;;;;;8.43;7.00;;;3.40;99.90;;;;;;5066455;28;20178;-49
2022/04/05 06:11:41;;;;;;;8.90;6.90;;;3.50;99.90;;;;;;5059528;28;20198;-46
2022/04/05 06:14:07;;;;;;;7.90;6.87;;;3.50;99.90;;;;;;5057171;28;20202;-47
2022/04/05 06:16:32;;;;;;;8.60;7.53;;;3.60;99.90;;;;;;5059131;28;20179;-46
2022/04/05 06:18:58;;;;;;;7.60;6.77;;;3.60;99.90;;;;;;5050854;28;20182;-48
2022/04/05 06:21:23;;;;;;;9.03;7.63;;;3.60;99.90;;;;;;5052389;28;20210;-46
2022/04/05 06:23:49;;;;;;;9.07;7.23;;;3.60;99.90;;;;;;5054399;28;20641;-47
2022/04/05 06:26:15;;;;;;;8.00;7.10;;;3.60;99.90;;;;;;5053453;28;20267;-47
2022/04/05 06:28:40;;;;;;;8.50;7.13;;;3.70;99.90;;;;;;5052619;28;20211;-46
2022/04/05 06:31:06;;;;;;;6.83;6.13;;;3.70;99.90;;;;;;5053295;28;20199;-52
2022/04/05 06:33:32;;;;;;;9.37;6.37;;;3.90;99.90;;;;;;5062669;28;20225;-50
2022/04/05 06:35:59;;;;;;;8.50;6.73;;;3.80;99.90;;;;;;5072655;28;20174;-48
2022/04/05 06:38:26;;;;;;;8.23;6.37;;;3.80;99.90;;;;;;5074138;28;20162;-48
2022/04/05 06:40:54;;;;;;;7.23;6.53;;;3.80;99.90;;;;;;5077488;28;20206;-47
2022/04/05 06:43:21;;;;;;;7.53;6.73;;;3.90;99.90;;;;;;5075484;28;20182;-53
2022/04/05 06:45:47;;;;;;;7.67;6.83;;;3.90;99.90;;;;;;5081115;28;20177;-51
2022/04/05 06:48:13;;;;;;;7.60;6.30;;;3.60;99.90;;;;;;5085904;28;20204;-52
2022/04/05 06:50:39;;;;;;;10.07;7.37;;;3.90;99.90;;;;;;5076111;28;20193;-49
2022/04/05 06:53:07;;;;;;;8.17;6.67;;;3.90;99.90;;;;;;5075076;28;20557;-50
2022/04/05 06:55:33;;;;;;;7.60;6.40;;;3.90;99.90;;;;;;5079271;28;20174;-50
2022/04/05 06:57:58;;;;;;;7.33;6.40;;;3.90;99.90;;;;;;5077087;28;20550;-53
2022/04/05 07:00:25;;;;;;;7.40;6.20;;;4.00;99.90;;;;;;5091841;28;20729;-53
2022/04/05 07:02:52;;;;;;;7.17;6.20;;;4.00;99.90;;;;;;5094350;28;20227;-48
2022/04/05 07:05:19;;;;;;;7.00;5.93;;;4.20;99.90;;;;;;5094300;28;20181;-51
2022/04/05 07:07:45;;;;;;;9.10;7.13;;;4.30;99.90;;;;;;5094778;28;20170;-52
2022/04/05 07:10:14;;;;;;;8.30;6.97;;;4.40;99.90;;;;;;5082596;28;20206;-53
2022/04/05 07:12:41;;;;;;;10.30;6.90;;;4.70;99.90;;;;;;5071548;28;20205;-51
2022/04/05 07:15:09;;;;;;;7.97;6.33;;;4.90;99.90;;;;;;5074516;28;20258;-54
2022/04/05 07:17:34;;;;;;;7.00;6.30;;;4.90;99.90;;;;;;5071580;28;20196;-53
2022/04/05 07:20:00;;;;;;;7.47;6.23;;;5.10;99.90;;;;;;5069457;28;20166;-54
2022/04/05 07:22:26;;;;;;;7.70;6.60;;;5.10;99.90;;;;;;5072533;28;20634;-51
2022/04/05 07:24:52;;;;;;;7.47;6.17;;;5.20;99.90;;;;;;5068427;28;20527;-50
2022/04/05 07:27:17;;;;;;;8.13;6.20;;;5.30;99.90;;;;;;5068386;28;20632;-52
2022/04/05 07:29:43;;;;;;;7.30;5.90;;;5.40;99.90;;;;;;5061299;28;20175;-49
2022/04/05 07:32:09;;;;;;;7.60;6.30;;;5.50;99.90;;;;;;5061564;28;20200;-52
2022/04/05 07:34:34;;;;;;;7.43;5.67;;;5.60;99.90;;;;;;5093396;28;20222;-50
2022/04/05 07:37:00;;;;;;;6.80;5.97;;;5.60;99.90;;;;;;5086760;28;20563;-50
2022/04/05 07:39:26;;;;;;;7.37;6.37;;;5.40;99.90;;;;;;5075236;28;20193;-53
2022/04/05 07:41:52;;;;;;;7.07;6.33;;;5.20;99.90;;;;;;5077858;28;20187;-52
2022/04/05 07:44:18;;;;;;;7.67;5.73;;;5.10;99.90;;;;;;5075935;28;20709;-48
2022/04/05 07:46:44;;;;;;;7.73;6.20;;;5.00;99.90;;;;;;5093950;28;20201;-54
2022/04/05 07:49:09;;;;;;;7.77;6.27;;;5.10;99.90;;;;;;5094151;28;20189;-51
2022/04/05 07:51:35;;;;;;;6.37;5.77;;;5.20;99.90;;;;;;5093811;28;20601;-53
2022/04/05 07:54:01;;;;;;;6.67;5.97;;;5.40;99.90;;;;;;5093385;28;20201;-50
2022/04/05 07:56:26;;;;;;;7.10;6.40;;;5.60;99.90;;;;;;5080569;28;20644;-50
2022/04/05 07:58:52;;;;;;;6.33;5.63;;;5.60;99.90;;;;;;5093580;28;20212;-51
2022/04/05 08:01:18;;;;;;;6.87;6.13;;;5.60;99.90;;;;;;5093725;28;20194;-52
2022/04/05 08:03:43;;;;;;;7.23;6.20;;;5.50;99.90;;;;;;5093140;28;20708;-49
2022/04/05 08:06:09;;;;;;;7.43;6.63;;;5.50;99.90;;;;;;5093798;28;20182;-54
2022/04/05 08:08:34;;;;;;;7.43;6.37;;;5.60;99.90;;;;;;5093721;28;20173;-50
2022/04/05 08:11:00;;;;;;;7.87;6.20;;;5.80;99.90;;;;;;5093205;28;20197;-50
2022/04/05 08:13:26;;;;;;;6.80;6.17;;;5.80;99.90;;;;;;5093290;28;20212;-56
2022/04/05 08:15:53;;;;;;;7.07;6.13;;;5.90;99.90;;;;;;5093182;28;20173;-54
2022/04/05 08:18:19;;;;;;;6.67;5.97;;;5.80;99.90;;;;;;5093449;28;20539;-54
2022/04/05 08:20:45;;;;;;;6.70;6.00;;;;;;;;;;5075407;28;20714;-51
2022/04/05 08:23:11;;;;;;;7.23;6.53;;;5.70;99.90;;;;;;5067925;28;20175;-55
2022/04/05 08:25:37;;;;;;;6.83;6.00;;;5.60;99.90;;;;;;5071272;28;20558;-55
2022/04/05 08:28:03;;;;;;;7.37;6.37;;;5.60;99.90;;;;;;5067788;28;20171;-53
2022/04/05 08:30:29;;;;;;;8.50;6.43;;;5.70;99.90;;;;;;5067991;28;20198;-55
2022/04/05 08:32:54;;;;;;;8.13;6.37;;;5.80;99.90;;;;;;5085923;28;20208;-54
2022/04/05 08:35:21;;;;;;;9.43;7.60;;;5.90;99.90;;;;;;5091078;28;20261;-55
2022/04/05 08:37:48;;;;;;;7.50;6.70;;;6.00;99.90;;;;;;5093156;28;20170;-52
2022/04/05 08:40:16;;;;;;;6.67;5.97;;;6.10;99.90;;;;;;5092723;28;20658;-51
2022/04/05 08:42:48;;;;;;;7.27;6.00;;;6.30;99.90;;;;;;5092180;28;20204;-52
2022/04/05 08:45:15;;;;;;;6.63;5.93;;;6.40;99.90;;;;;;5092690;28;20170;-50
2022/04/05 08:47:48;;;;;;;6.80;6.10;;;6.40;99.90;;;;;;5059839;28;20642;-49
2022/04/05 08:50:15;;;;;;;7.00;6.30;;;6.40;99.90;;;;;;5092797;28;20276;-53
2022/04/05 08:52:43;;;;;;;7.77;6.47;;;6.30;99.90;;;;;;5092346;28;20227;-55
2022/04/05 08:55:09;;;;;;;7.03;6.33;;;6.30;99.90;;;;;;5092853;28;20191;-51
2022/04/05 08:57:34;;;;;;;7.20;6.03;;;6.30;99.90;;;;;;5092328;28;20252;-56
2022/04/05 09:00:01;;;;;;;6.53;5.80;;;6.20;99.90;;;;;;5092738;28;20258;-53
2022/04/05 09:02:27;;;;;;;8.50;6.33;;;6.10;99.90;;;;;;5087543;28;20170;-51
2022/04/05 09:04:53;;;;;;;8.30;6.83;;;;;;;;;;5077111;28;20237;-53
2022/04/05 09:07:33;;;;;;;7.87;6.10;;;6.20;99.90;;;;;;5071430;28;20265;-50
2022/04/05 09:10:17;;;;;;;7.10;6.37;;;6.10;99.90;;;;;;5069315;28;20193;-53
2022/04/05 09:12:43;;;;;;;7.13;6.37;;;6.30;99.90;;;;;;5074790;28;20178;-49
2022/04/05 09:15:17;;;;;;;7.40;6.10;;;6.20;99.90;;;;;;5072695;28;20171;-53
2022/04/05 09:17:44;;;;;;;7.63;6.63;;;6.00;99.90;;;;;;5070067;28;20177;-55
2022/04/05 09:20:15;;;;;;;8.13;6.47;;;5.90;99.90;;;;;;5073992;28;20197;-53
2022/04/05 09:22:41;;;;;;;7.93;6.70;;;5.90;99.90;;;;;;5075277;28;20647;-53
2022/04/05 09:25:15;;;;;;;6.57;5.80;;;5.80;99.90;;;;;;5086518;28;20176;-51
2022/04/05 09:27:48;;;;;;;7.33;6.37;;;5.60;99.90;;;;;;5072648;28;20642;-49
2022/04/05 09:30:16;;;;;;;6.83;6.13;;;5.40;99.90;;;;;;5073752;28;20191;-51
2022/04/05 09:32:46;;;;;;;7.77;6.80;;;5.60;99.90;;;;;;5081652;28;20535;-49
2022/04/05 09:35:12;;;;;;;8.03;7.17;;;5.50;99.90;;;;;;5076408;28;20174;-48
2022/04/05 09:37:39;;;;;;;7.40;6.53;;;5.60;99.90;;;;;;5071883;28;20159;-55
2022/04/05 09:40:34;;;;;;;7.37;6.40;;;5.70;99.90;;;;;;5071533;28;20258;-49
2022/04/05 09:43:13;;;;;;;7.70;6.63;;;5.60;99.90;;;;;;5028995;28;20188;-47
2022/04/05 09:45:52;;;;;;;8.27;6.80;;;5.50;99.90;;;;;;5029268;28;20271;-48
2022/04/05 09:48:23;;;;;;;7.67;6.80;;;5.50;99.90;;;;;;5040690;28;20279;-47
2022/04/05 09:51:04;;;;;;;8.10;7.30;;;5.50;99.90;;;;;;5041466;28;20214;-49
2022/04/05 09:53:38;;;;;;;8.17;6.97;;;5.40;99.90;;;;;;5041970;28;20256;-47
2022/04/05 09:56:38;;;;;;;9.60;7.20;;;5.50;99.90;;;;;;5038013;28;20600;-47
2022/04/05 09:59:18;;;;;;;8.13;7.33;;;5.60;99.90;;;;;;5058283;28;20908;-48
2022/04/05 10:01:45;;;;;;;7.80;7.00;;;5.60;99.90;;;;;;5044039;28;20551;-48
2022/04/05 10:04:14;;;;;;;7.43;6.57;;;5.70;99.90;;;;;;5041223;28;20294;-47
2022/04/05 10:06:46;;;;;;;7.27;6.57;;;5.80;99.90;;;;;;5046471;28;20357;-47
2022/04/05 10:09:13;;;;;;;7.70;6.83;;;5.80;99.90;;;;;;5048700;28;20266;-47
2022/04/05 10:11:40;;;;;;;8.00;6.83;;;6.00;99.90;;;;;;5046937;28;20226;-49
2022/04/05 10:14:08;;;;;;;7.93;6.43;;;6.10;99.90;;;;;;5048418;28;20218;-48
2022/04/05 10:16:34;;;;;;;7.83;6.40;;;6.10;99.90;;;;;;5048928;28;20179;-48
2022/04/05 10:19:05;;;;;;;7.70;6.37;;;6.00;99.90;;;;;;5056405;28;20198;-50
2022/04/05 10:21:36;;;;;;;8.53;6.50;;;5.90;99.90;;;;;;5070776;28;20210;-47
2022/04/05 10:24:06;;;;;;;7.10;6.40;;;5.80;99.90;;;;;;5071089;28;20174;-49
2022/04/05 10:26:35;;;;;;;7.50;6.70;;;5.70;99.90;;;;;;5071256;28;20185;-48
2022/04/05 10:29:05;;;;;;;7.40;6.70;;;5.90;99.90;;;;;;5071407;28;20197;-47
2022/04/05 10:31:59;;;;;;;7.30;6.60;;;5.70;99.90;;;;;;5071089;28;20269;-47
2022/04/05 10:34:34;;;;;;;8.43;6.67;;;5.90;99.90;;;;;;5070980;28;20224;-48
2022/04/05 10:37:18;;;;;;;7.47;6.67;;;6.10;99.90;;;;;;5071352;28;20185;-49
2022/04/05 10:40:09;;;;;;;8.00;7.20;;;6.00;99.90;;;;;;5071068;28;20175;-47
2022/04/05 10:42:41;;;;;;;7.60;6.80;;;6.10;99.90;;;;;;5070837;28;20204;-50
2022/04/05 10:45:21;;;;;;;9.97;6.90;;;5.70;99.90;;;;;;5070956;28;20214;-50
2022/04/05 10:47:58;;;;;;;7.33;6.60;;;6.00;99.90;;;;;;5071408;28;20539;-47
2022/04/05 10:50:23;;;;;;;7.87;7.07;;;6.00;99.90;;;;;;5070754;28;20627;-46
2022/04/05 10:53:18;;;;;;;7.63;6.80;;;6.00;99.90;;;;;;5070553;28;20230;-48
2022/04/05 10:56:10;;;;;;;7.67;6.70;;;6.40;99.90;;;;;;5070842;28;20655;-52
2022/04/05 10:58:40;;;;;;;7.70;6.93;;;6.20;99.90;;;;;;5070965;28;20185;-52
2022/04/05 11:01:22;;;;;;;7.30;6.43;;;6.40;99.90;;;;;;5070471;28;20183;-53
2022/04/05 11:04:09;;;;;;;6.83;6.03;;;6.50;99.90;;;;;;5070642;28;20257;-50
2022/04/05 11:07:02;;;;;;;7.40;6.40;;;6.80;99.90;;;;;;5074148;28;20174;-50
2022/04/05 11:09:44;;;;;;;8.30;6.03;;;6.80;99.90;;;;;;5074433;28;20174;-52
2022/04/05 11:12:24;;;;;;;7.67;6.20;;;6.60;99.90;;;;;;5071439;28;20209;-48
2022/04/05 11:14:55;;;;;;;6.83;6.07;;;7.20;99.90;;;;;;5074362;28;20190;-49
2022/04/05 11:17:23;;;;;;;7.27;6.57;;;6.70;99.90;;;;;;5074114;28;20714;-48
2022/04/05 11:19:51;;;;;;;6.53;5.80;;;6.80;99.90;;;;;;5074314;28;20207;-48
2022/04/05 11:22:20;;;;;;;7.17;6.40;;;6.60;99.90;;;;;;5169642;23;20221;-55
2022/04/05 11:24:53;;;;;;;6.87;6.17;;;6.50;99.90;;;;;;5088805;28;20209;-50
2022/04/05 11:27:25;;;;;;;7.77;6.50;;;6.50;99.90;;;;;;5082072;28;20554;-53
2022/04/05 11:30:28;;;;;;;7.97;7.17;;;6.70;99.90;;;;;;5093988;28;20174;-51
2022/04/05 11:33:06;;;;;;;7.80;7.00;;;7.00;99.90;;;;;;5090736;28;20220;-53
2022/04/05 11:35:40;;;;;;;7.33;6.63;;;7.40;99.90;;;;;;5093919;28;20222;-51
2022/04/05 11:38:18;;;;;;;7.43;6.63;;;7.20;99.90;;;;;;5094110;28;20187;-51
2022/04/05 11:40:48;;;;;;;7.17;6.47;;;7.20;99.90;;;;;;5099170;28;20181;-53
2022/04/05 11:43:27;;;;;;;7.90;6.90;;;7.30;99.90;;;;;;5093770;28;20224;-50
2022/04/05 11:45:54;;;;;;;33.87;25.90;;;7.40;99.90;;;;;;5093613;28;20166;-52
2022/04/05 11:48:22;;;;;;;7.70;6.90;;;7.40;99.90;;;;;;5093019;28;20235;-53
2022/04/05 11:50:49;;;;;;;7.87;7.00;;;7.40;99.90;;;;;;5093670;28;20169;-51
2022/04/05 11:53:21;;;;;;;7.93;7.10;;;7.50;99.90;;;;;;5093326;28;20225;-51
2022/04/05 11:56:14;;;;;;;7.60;6.90;;;7.60;99.90;;;;;;5092294;28;20173;-51
2022/04/05 11:58:42;;;;;;;8.27;7.43;;;7.40;99.90;;;;;;5087365;28;20224;-53
2022/04/05 12:01:09;;;;;;;7.27;6.53;;;7.40;99.90;;;;;;5092725;28;20618;-53
2022/04/05 12:03:55;;;;;;;8.00;7.20;;;7.30;99.90;;;;;;5092536;28;20508;-50
2022/04/05 12:06:21;;;;;;;7.60;6.80;;;7.20;99.90;;;;;;5092856;28;20515;-51
2022/04/05 12:08:48;;;;;;;7.93;7.13;;;7.50;99.90;;;;;;5092739;28;20181;-53
2022/04/05 12:11:20;;;;;;;8.20;7.40;;;7.50;99.90;;;;;;5093673;28;20219;-53
2022/04/05 12:13:52;;;;;;;8.60;7.07;;;7.40;99.90;;;;;;5091666;28;20213;-55
2022/04/05 12:16:18;;;;;;;7.40;6.63;;;7.40;99.90;;;;;;5092786;28;20642;-51
2022/04/05 12:18:44;;;;;;;7.37;6.57;;;7.50;99.90;;;;;;5093387;28;20165;-52
2022/04/05 12:21:10;;;;;;;7.77;6.93;;;7.50;99.90;;;;;;5093462;28;20169;-51
2022/04/05 12:23:38;;;;;;;7.47;6.77;;;7.60;99.90;;;;;;5093035;28;20231;-51
2022/04/05 12:26:09;;;;;;;7.90;7.10;;;7.60;99.90;;;;;;5093376;28;20170;-55
2022/04/05 12:28:48;;;;;;;7.40;6.70;;;7.60;99.90;;;;;;5093636;28;20174;-52
2022/04/05 12:31:27;;;;;;;7.60;6.80;;;7.60;99.90;;;;;;5092954;28;20235;-54
2022/04/05 12:33:59;;;;;;;8.50;7.00;;;7.40;99.90;;;;;;5092849;28;20192;-55
2022/04/05 12:36:36;;;;;;;8.13;7.13;;;7.70;99.90;;;;;;5093075;28;20246;-52
2022/04/05 12:39:20;;;;;;;7.50;6.53;;;7.70;99.90;;;;;;5093265;28;20176;-52
2022/04/05 12:41:48;;;;;;;8.77;7.00;;;8.00;99.90;;;;;;5089886;28;20239;-51
2022/04/05 12:44:16;;;;;;;8.47;7.43;;;8.10;99.90;;;;;;5095511;28;20178;-55
2022/04/05 12:46:57;;;;;;;8.00;7.20;;;8.10;99.90;;;;;;5088661;28;20177;-57
2022/04/05 12:49:31;;;;;;;7.10;6.40;;;8.10;99.90;;;;;;5085831;28;20222;-53
2022/04/05 12:52:06;;;;;;;7.47;6.77;;;8.50;99.90;;;;;;5081976;28;20197;-55
2022/04/05 12:54:34;;;;;;;7.77;6.97;;;8.90;99.90;;;;;;5081567;28;20231;-51
2022/04/05 12:57:24;;;;;;;7.10;6.40;;;9.00;99.90;;;;;;5091418;28;20174;-54
2022/04/05 12:59:52;;;;;;;9.43;7.40;;;9.00;99.90;;;;;;5092995;28;20581;-54
2022/04/05 13:02:18;;;;;;;8.43;6.13;;;;;;;;;;5092234;28;20235;-55